sensor_id;sensor_type;location;lat;lon;timestamp;P1;durP1;ratioP1;P2;durP2;ratioP2
18196;SDS011;9224;52.422;13.024;2022-10-13T00:00:10;10.32;;;6.15;;
18196;SDS011;9224;52.422;13.024;2022-10-13T00:02:37;8.95;;;5.60;;
18196;SDS011;9224;52.422;13.024;2022-10-13T00:05:03;8.18;;;5.22;;
18196;SDS011;9224;52.422;13.024;2022-10-13T00:07:30;7.45;;;5.70;;
18196;SDS011;9224;52.422;13.024;2022-10-13T00:09:57;8.18;;;5.70;;
18196;SDS011;9224;52.422;13.024;2022-10-13T00:12:23;9.00;;;5.88;;
18196;SDS011;9224;52.422;13.024;2022-10-13T00:14:51;11.40;;;6.05;;
18196;SDS011;9224;52.422;13.024;2022-10-13T00:17:17;8.23;;;5.80;;
18196;SDS011;9224;52.422;13.024;2022-10-13T00:19:44;9.17;;;6.00;;
18196;SDS011;9224;52.422;13.024;2022-10-13T00:22:10;9.25;;;6.18;;
18196;SDS011;9224;52.422;13.024;2022-10-13T00:24:37;11.52;;;6.72;;
18196;SDS011;9224;52.422;13.024;2022-10-13T00:27:03;10.75;;;6.30;;
18196;SDS011;9224;52.422;13.024;2022-10-13T00:29:30;9.82;;;6.50;;
18196;SDS011;9224;52.422;13.024;2022-10-13T00:31:57;10.48;;;6.40;;
18196;SDS011;9224;52.422;13.024;2022-10-13T00:34:24;10.90;;;6.50;;
18196;SDS011;9224;52.422;13.024;2022-10-13T00:36:50;9.48;;;6.43;;
18196;SDS011;9224;52.422;13.024;2022-10-13T00:39:17;12.00;;;6.72;;
18196;SDS011;9224;52.422;13.024;2022-10-13T00:41:43;10.45;;;6.72;;
18196;SDS011;9224;52.422;13.024;2022-10-13T00:47:11;9.77;;;6.85;;
18196;SDS011;9224;52.422;13.024;2022-10-13T00:49:37;7.93;;;6.10;;
18196;SDS011;9224;52.422;13.024;2022-10-13T00:52:04;8.60;;;6.55;;
18196;SDS011;9224;52.422;13.024;2022-10-13T00:54:30;9.80;;;6.32;;
18196;SDS011;9224;52.422;13.024;2022-10-13T00:56:57;10.85;;;6.57;;
18196;SDS011;9224;52.422;13.024;2022-10-13T00:59:25;8.90;;;6.30;;
18196;SDS011;9224;52.422;13.024;2022-10-13T01:01:53;9.18;;;6.93;;
18196;SDS011;9224;52.422;13.024;2022-10-13T01:04:22;8.60;;;6.53;;
18196;SDS011;9224;52.422;13.024;2022-10-13T01:06:50;10.00;;;6.68;;
18196;SDS011;9224;52.422;13.024;2022-10-13T01:09:17;10.75;;;7.10;;
18196;SDS011;9224;52.422;13.024;2022-10-13T01:11:48;9.30;;;6.53;;
18196;SDS011;9224;52.422;13.024;2022-10-13T01:14:24;11.25;;;6.93;;
18196;SDS011;9224;52.422;13.024;2022-10-13T01:16:57;9.52;;;6.78;;
18196;SDS011;9224;52.422;13.024;2022-10-13T01:19:42;9.52;;;6.15;;
18196;SDS011;9224;52.422;13.024;2022-10-13T01:22:26;10.57;;;6.85;;
18196;SDS011;9224;52.422;13.024;2022-10-13T01:25:07;10.38;;;6.45;;
18196;SDS011;9224;52.422;13.024;2022-10-13T01:27:42;10.27;;;6.30;;
18196;SDS011;9224;52.422;13.024;2022-10-13T01:30:29;9.27;;;6.50;;
18196;SDS011;9224;52.422;13.024;2022-10-13T01:33:04;9.50;;;6.70;;
18196;SDS011;9224;52.422;13.024;2022-10-13T01:35:40;11.23;;;6.40;;
18196;SDS011;9224;52.422;13.024;2022-10-13T01:38:12;9.13;;;7.00;;
18196;SDS011;9224;52.422;13.024;2022-10-13T01:40:42;9.77;;;6.50;;
18196;SDS011;9224;52.422;13.024;2022-10-13T01:43:13;9.73;;;6.35;;
18196;SDS011;9224;52.422;13.024;2022-10-13T01:45:46;11.07;;;6.95;;
18196;SDS011;9224;52.422;13.024;2022-10-13T01:48:15;10.05;;;6.70;;
18196;SDS011;9224;52.422;13.024;2022-10-13T01:50:42;8.63;;;6.68;;
18196;SDS011;9224;52.422;13.024;2022-10-13T01:53:09;12.43;;;7.15;;
18196;SDS011;9224;52.422;13.024;2022-10-13T01:55:46;8.93;;;6.85;;
18196;SDS011;9224;52.422;13.024;2022-10-13T01:58:13;9.15;;;7.05;;
18196;SDS011;9224;52.422;13.024;2022-10-13T02:00:41;10.73;;;7.13;;
18196;SDS011;9224;52.422;13.024;2022-10-13T02:03:16;8.77;;;6.97;;
18196;SDS011;9224;52.422;13.024;2022-10-13T02:05:45;9.88;;;7.00;;
18196;SDS011;9224;52.422;13.024;2022-10-13T02:08:15;9.88;;;7.20;;
18196;SDS011;9224;52.422;13.024;2022-10-13T02:10:45;12.25;;;7.00;;
18196;SDS011;9224;52.422;13.024;2022-10-13T02:13:18;9.35;;;7.30;;
18196;SDS011;9224;52.422;13.024;2022-10-13T02:15:48;10.43;;;7.40;;
18196;SDS011;9224;52.422;13.024;2022-10-13T02:18:34;10.55;;;7.18;;
18196;SDS011;9224;52.422;13.024;2022-10-13T02:21:19;9.27;;;7.38;;
18196;SDS011;9224;52.422;13.024;2022-10-13T02:24:05;9.95;;;7.18;;
18196;SDS011;9224;52.422;13.024;2022-10-13T02:26:33;12.25;;;8.00;;
18196;SDS011;9224;52.422;13.024;2022-10-13T02:29:05;10.05;;;7.68;;
18196;SDS011;9224;52.422;13.024;2022-10-13T02:31:34;11.48;;;8.40;;
18196;SDS011;9224;52.422;13.024;2022-10-13T02:34:00;12.25;;;8.38;;
18196;SDS011;9224;52.422;13.024;2022-10-13T02:36:27;11.60;;;8.00;;
18196;SDS011;9224;52.422;13.024;2022-10-13T02:38:53;11.70;;;8.02;;
18196;SDS011;9224;52.422;13.024;2022-10-13T02:41:19;11.45;;;7.88;;
18196;SDS011;9224;52.422;13.024;2022-10-13T02:43:46;12.75;;;8.38;;
18196;SDS011;9224;52.422;13.024;2022-10-13T02:46:12;10.80;;;8.10;;
18196;SDS011;9224;52.422;13.024;2022-10-13T02:48:40;10.48;;;7.70;;
18196;SDS011;9224;52.422;13.024;2022-10-13T02:51:07;10.45;;;8.30;;
18196;SDS011;9224;52.422;13.024;2022-10-13T02:53:33;10.90;;;8.00;;
18196;SDS011;9224;52.422;13.024;2022-10-13T02:56:00;10.52;;;8.57;;
18196;SDS011;9224;52.422;13.024;2022-10-13T02:58:26;14.80;;;8.73;;
18196;SDS011;9224;52.422;13.024;2022-10-13T03:00:53;12.63;;;8.65;;
18196;SDS011;9224;52.422;13.024;2022-10-13T03:03:19;12.98;;;9.48;;
18196;SDS011;9224;52.422;13.024;2022-10-13T03:05:47;11.35;;;8.93;;
18196;SDS011;9224;52.422;13.024;2022-10-13T03:08:13;11.10;;;9.27;;
18196;SDS011;9224;52.422;13.024;2022-10-13T03:10:40;12.02;;;8.98;;
18196;SDS011;9224;52.422;13.024;2022-10-13T03:13:06;10.85;;;9.20;;
18196;SDS011;9224;52.422;13.024;2022-10-13T03:15:32;11.85;;;9.40;;
18196;SDS011;9224;52.422;13.024;2022-10-13T03:17:59;10.77;;;9.25;;
18196;SDS011;9224;52.422;13.024;2022-10-13T03:20:25;10.60;;;9.25;;
18196;SDS011;9224;52.422;13.024;2022-10-13T03:22:53;12.63;;;9.05;;
18196;SDS011;9224;52.422;13.024;2022-10-13T03:25:20;12.13;;;9.25;;
18196;SDS011;9224;52.422;13.024;2022-10-13T03:27:46;10.75;;;9.35;;
18196;SDS011;9224;52.422;13.024;2022-10-13T03:30:13;11.90;;;9.15;;
18196;SDS011;9224;52.422;13.024;2022-10-13T03:32:39;12.10;;;9.30;;
18196;SDS011;9224;52.422;13.024;2022-10-13T03:35:06;12.27;;;9.35;;
18196;SDS011;9224;52.422;13.024;2022-10-13T03:37:33;13.88;;;10.10;;
18196;SDS011;9224;52.422;13.024;2022-10-13T03:40:01;11.07;;;9.73;;
18196;SDS011;9224;52.422;13.024;2022-10-13T03:42:27;10.80;;;9.10;;
18196;SDS011;9224;52.422;13.024;2022-10-13T03:44:54;12.93;;;9.73;;
18196;SDS011;9224;52.422;13.024;2022-10-13T03:47:20;13.90;;;10.10;;
18196;SDS011;9224;52.422;13.024;2022-10-13T03:49:47;13.27;;;10.23;;
18196;SDS011;9224;52.422;13.024;2022-10-13T03:52:13;14.60;;;9.93;;
18196;SDS011;9224;52.422;13.024;2022-10-13T03:54:40;12.57;;;9.65;;
18196;SDS011;9224;52.422;13.024;2022-10-13T03:57:07;12.60;;;9.68;;
18196;SDS011;9224;52.422;13.024;2022-10-13T03:59:34;13.05;;;9.73;;
18196;SDS011;9224;52.422;13.024;2022-10-13T04:02:00;10.95;;;9.57;;
18196;SDS011;9224;52.422;13.024;2022-10-13T04:04:27;13.90;;;10.40;;
18196;SDS011;9224;52.422;13.024;2022-10-13T04:06:53;12.98;;;10.20;;
18196;SDS011;9224;52.422;13.024;2022-10-13T04:09:20;14.45;;;10.27;;
18196;SDS011;9224;52.422;13.024;2022-10-13T04:11:48;12.98;;;9.63;;
18196;SDS011;9224;52.422;13.024;2022-10-13T04:14:16;12.30;;;10.15;;
18196;SDS011;9224;52.422;13.024;2022-10-13T04:16:43;16.10;;;9.85;;
18196;SDS011;9224;52.422;13.024;2022-10-13T04:19:09;13.07;;;9.80;;
18196;SDS011;9224;52.422;13.024;2022-10-13T04:21:37;11.00;;;9.90;;
18196;SDS011;9224;52.422;13.024;2022-10-13T04:24:04;12.63;;;10.02;;
18196;SDS011;9224;52.422;13.024;2022-10-13T04:26:32;12.77;;;10.05;;
18196;SDS011;9224;52.422;13.024;2022-10-13T04:29:01;13.38;;;9.85;;
18196;SDS011;9224;52.422;13.024;2022-10-13T04:31:29;13.23;;;9.95;;
18196;SDS011;9224;52.422;13.024;2022-10-13T04:33:56;10.60;;;9.15;;
18196;SDS011;9224;52.422;13.024;2022-10-13T04:36:23;16.85;;;10.10;;
18196;SDS011;9224;52.422;13.024;2022-10-13T04:38:50;12.00;;;9.95;;
18196;SDS011;9224;52.422;13.024;2022-10-13T04:41:17;12.55;;;9.73;;
18196;SDS011;9224;52.422;13.024;2022-10-13T04:43:45;11.13;;;9.48;;
18196;SDS011;9224;52.422;13.024;2022-10-13T04:46:13;12.38;;;9.98;;
18196;SDS011;9224;52.422;13.024;2022-10-13T04:48:44;12.77;;;10.15;;
18196;SDS011;9224;52.422;13.024;2022-10-13T04:51:12;12.80;;;10.10;;
18196;SDS011;9224;52.422;13.024;2022-10-13T04:53:40;13.20;;;10.10;;
18196;SDS011;9224;52.422;13.024;2022-10-13T04:56:07;14.80;;;10.15;;
18196;SDS011;9224;52.422;13.024;2022-10-13T04:58:35;14.05;;;10.45;;
18196;SDS011;9224;52.422;13.024;2022-10-13T05:01:02;12.05;;;10.10;;
18196;SDS011;9224;52.422;13.024;2022-10-13T05:03:30;13.90;;;10.23;;
18196;SDS011;9224;52.422;13.024;2022-10-13T05:05:58;14.15;;;10.50;;
18196;SDS011;9224;52.422;13.024;2022-10-13T05:08:24;13.43;;;9.90;;
18196;SDS011;9224;52.422;13.024;2022-10-13T05:10:51;13.43;;;10.30;;
18196;SDS011;9224;52.422;13.024;2022-10-13T05:13:19;12.75;;;9.95;;
18196;SDS011;9224;52.422;13.024;2022-10-13T05:15:45;11.63;;;9.93;;
18196;SDS011;9224;52.422;13.024;2022-10-13T05:18:11;13.52;;;10.63;;
18196;SDS011;9224;52.422;13.024;2022-10-13T05:20:38;12.98;;;9.95;;
18196;SDS011;9224;52.422;13.024;2022-10-13T05:23:06;12.25;;;10.43;;
18196;SDS011;9224;52.422;13.024;2022-10-13T05:25:32;12.05;;;10.45;;
18196;SDS011;9224;52.422;13.024;2022-10-13T05:27:59;14.52;;;10.70;;
18196;SDS011;9224;52.422;13.024;2022-10-13T05:30:26;14.32;;;10.82;;
18196;SDS011;9224;52.422;13.024;2022-10-13T05:32:52;14.67;;;11.03;;
18196;SDS011;9224;52.422;13.024;2022-10-13T05:35:19;14.97;;;10.87;;
18196;SDS011;9224;52.422;13.024;2022-10-13T05:37:45;11.88;;;10.30;;
18196;SDS011;9224;52.422;13.024;2022-10-13T05:40:13;12.50;;;10.55;;
18196;SDS011;9224;52.422;13.024;2022-10-13T05:42:40;12.93;;;10.30;;
18196;SDS011;9224;52.422;13.024;2022-10-13T05:45:08;13.70;;;10.98;;
18196;SDS011;9224;52.422;13.024;2022-10-13T05:47:35;14.02;;;10.77;;
18196;SDS011;9224;52.422;13.024;2022-10-13T05:50:01;13.18;;;11.35;;
18196;SDS011;9224;52.422;13.024;2022-10-13T05:52:28;13.70;;;10.82;;
18196;SDS011;9224;52.422;13.024;2022-10-13T05:54:57;14.57;;;11.03;;
18196;SDS011;9224;52.422;13.024;2022-10-13T05:57:27;13.50;;;10.83;;
18196;SDS011;9224;52.422;13.024;2022-10-13T05:59:56;13.18;;;10.65;;
18196;SDS011;9224;52.422;13.024;2022-10-13T06:02:25;13.20;;;10.70;;
18196;SDS011;9224;52.422;13.024;2022-10-13T06:04:55;13.25;;;11.13;;
18196;SDS011;9224;52.422;13.024;2022-10-13T06:07:22;13.70;;;11.05;;
18196;SDS011;9224;52.422;13.024;2022-10-13T06:09:49;14.73;;;11.57;;
18196;SDS011;9224;52.422;13.024;2022-10-13T06:12:15;15.02;;;11.80;;
18196;SDS011;9224;52.422;13.024;2022-10-13T06:14:43;15.98;;;11.70;;
18196;SDS011;9224;52.422;13.024;2022-10-13T06:17:10;13.95;;;12.02;;
18196;SDS011;9224;52.422;13.024;2022-10-13T06:19:36;14.02;;;11.43;;
18196;SDS011;9224;52.422;13.024;2022-10-13T06:22:03;13.30;;;11.73;;
18196;SDS011;9224;52.422;13.024;2022-10-13T06:24:29;15.57;;;11.75;;
18196;SDS011;9224;52.422;13.024;2022-10-13T06:26:56;17.13;;;11.85;;
18196;SDS011;9224;52.422;13.024;2022-10-13T06:29:22;16.20;;;12.13;;
18196;SDS011;9224;52.422;13.024;2022-10-13T06:31:50;15.75;;;11.85;;
18196;SDS011;9224;52.422;13.024;2022-10-13T06:34:17;15.33;;;11.97;;
18196;SDS011;9224;52.422;13.024;2022-10-13T06:36:43;15.43;;;11.97;;
18196;SDS011;9224;52.422;13.024;2022-10-13T06:39:09;14.00;;;12.13;;
18196;SDS011;9224;52.422;13.024;2022-10-13T06:41:36;16.67;;;11.52;;
18196;SDS011;9224;52.422;13.024;2022-10-13T06:44:02;14.93;;;11.70;;
18196;SDS011;9224;52.422;13.024;2022-10-13T06:46:29;14.63;;;11.73;;
18196;SDS011;9224;52.422;13.024;2022-10-13T06:48:57;15.93;;;12.55;;
18196;SDS011;9224;52.422;13.024;2022-10-13T06:51:24;16.42;;;13.05;;
18196;SDS011;9224;52.422;13.024;2022-10-13T06:53:50;17.57;;;13.47;;
18196;SDS011;9224;52.422;13.024;2022-10-13T06:56:16;18.13;;;13.03;;
18196;SDS011;9224;52.422;13.024;2022-10-13T06:58:43;15.87;;;13.03;;
18196;SDS011;9224;52.422;13.024;2022-10-13T07:01:10;18.30;;;13.85;;
18196;SDS011;9224;52.422;13.024;2022-10-13T07:03:37;19.48;;;14.02;;
18196;SDS011;9224;52.422;13.024;2022-10-13T07:06:05;20.02;;;14.05;;
18196;SDS011;9224;52.422;13.024;2022-10-13T07:08:33;18.90;;;13.02;;
18196;SDS011;9224;52.422;13.024;2022-10-13T07:11:04;17.13;;;12.77;;
18196;SDS011;9224;52.422;13.024;2022-10-13T07:13:31;15.90;;;13.00;;
18196;SDS011;9224;52.422;13.024;2022-10-13T07:15:57;18.33;;;12.48;;
18196;SDS011;9224;52.422;13.024;2022-10-13T07:18:24;17.00;;;12.35;;
18196;SDS011;9224;52.422;13.024;2022-10-13T07:20:51;17.25;;;12.57;;
18196;SDS011;9224;52.422;13.024;2022-10-13T07:23:18;17.85;;;12.55;;
18196;SDS011;9224;52.422;13.024;2022-10-13T07:25:45;15.05;;;12.13;;
18196;SDS011;9224;52.422;13.024;2022-10-13T07:28:11;16.10;;;11.98;;
18196;SDS011;9224;52.422;13.024;2022-10-13T07:30:38;17.88;;;12.50;;
18196;SDS011;9224;52.422;13.024;2022-10-13T07:33:04;17.60;;;13.10;;
18196;SDS011;9224;52.422;13.024;2022-10-13T07:35:31;15.02;;;12.55;;
18196;SDS011;9224;52.422;13.024;2022-10-13T07:37:57;17.92;;;12.77;;
18196;SDS011;9224;52.422;13.024;2022-10-13T07:40:25;16.13;;;12.10;;
18196;SDS011;9224;52.422;13.024;2022-10-13T07:42:51;16.55;;;12.45;;
18196;SDS011;9224;52.422;13.024;2022-10-13T07:45:18;15.27;;;11.70;;
18196;SDS011;9224;52.422;13.024;2022-10-13T07:47:44;16.63;;;11.65;;
18196;SDS011;9224;52.422;13.024;2022-10-13T07:50:11;16.83;;;12.13;;
18196;SDS011;9224;52.422;13.024;2022-10-13T07:52:37;13.70;;;12.02;;
18196;SDS011;9224;52.422;13.024;2022-10-13T07:55:05;12.82;;;11.07;;
18196;SDS011;9224;52.422;13.024;2022-10-13T07:57:33;13.43;;;11.07;;
18196;SDS011;9224;52.422;13.024;2022-10-13T08:00:00;14.98;;;11.60;;
18196;SDS011;9224;52.422;13.024;2022-10-13T08:02:26;15.55;;;12.40;;
18196;SDS011;9224;52.422;13.024;2022-10-13T08:04:54;14.35;;;12.02;;
18196;SDS011;9224;52.422;13.024;2022-10-13T08:07:20;13.50;;;11.80;;
18196;SDS011;9224;52.422;13.024;2022-10-13T08:09:47;15.95;;;11.52;;
18196;SDS011;9224;52.422;13.024;2022-10-13T08:12:13;14.88;;;11.50;;
18196;SDS011;9224;52.422;13.024;2022-10-13T08:14:41;14.38;;;11.63;;
18196;SDS011;9224;52.422;13.024;2022-10-13T08:17:08;15.23;;;11.80;;
18196;SDS011;9224;52.422;13.024;2022-10-13T08:19:35;16.08;;;11.98;;
18196;SDS011;9224;52.422;13.024;2022-10-13T08:22:01;13.55;;;11.60;;
18196;SDS011;9224;52.422;13.024;2022-10-13T08:24:28;14.60;;;11.23;;
18196;SDS011;9224;52.422;13.024;2022-10-13T08:26:55;16.33;;;12.35;;
18196;SDS011;9224;52.422;13.024;2022-10-13T08:29:21;13.52;;;12.13;;
18196;SDS011;9224;52.422;13.024;2022-10-13T08:31:49;17.95;;;13.07;;
18196;SDS011;9224;52.422;13.024;2022-10-13T08:34:15;24.05;;;16.50;;
18196;SDS011;9224;52.422;13.024;2022-10-13T08:36:42;18.58;;;14.95;;
18196;SDS011;9224;52.422;13.024;2022-10-13T08:39:08;21.05;;;16.05;;
18196;SDS011;9224;52.422;13.024;2022-10-13T08:41:36;14.32;;;12.10;;
18196;SDS011;9224;52.422;13.024;2022-10-13T08:44:04;17.33;;;12.90;;
18196;SDS011;9224;52.422;13.024;2022-10-13T08:46:36;26.42;;;19.27;;
18196;SDS011;9224;52.422;13.024;2022-10-13T08:49:06;32.75;;;22.10;;
18196;SDS011;9224;52.422;13.024;2022-10-13T08:51:33;43.58;;;27.30;;
18196;SDS011;9224;52.422;13.024;2022-10-13T08:54:00;66.27;;;27.63;;
18196;SDS011;9224;52.422;13.024;2022-10-13T08:56:27;63.25;;;30.23;;
18196;SDS011;9224;52.422;13.024;2022-10-13T08:58:56;32.88;;;18.80;;
18196;SDS011;9224;52.422;13.024;2022-10-13T09:01:23;27.15;;;16.02;;
18196;SDS011;9224;52.422;13.024;2022-10-13T09:03:53;21.23;;;14.80;;
18196;SDS011;9224;52.422;13.024;2022-10-13T09:06:22;30.77;;;18.90;;
18196;SDS011;9224;52.422;13.024;2022-10-13T09:08:53;40.65;;;24.80;;
18196;SDS011;9224;52.422;13.024;2022-10-13T09:11:22;24.30;;;18.35;;
18196;SDS011;9224;52.422;13.024;2022-10-13T09:13:52;20.87;;;16.60;;
18196;SDS011;9224;52.422;13.024;2022-10-13T09:16:24;15.77;;;12.80;;
18196;SDS011;9224;52.422;13.024;2022-10-13T09:19:00;14.27;;;11.63;;
18196;SDS011;9224;52.422;13.024;2022-10-13T09:21:39;16.83;;;11.50;;
18196;SDS011;9224;52.422;13.024;2022-10-13T09:24:07;13.48;;;10.88;;
18196;SDS011;9224;52.422;13.024;2022-10-13T09:26:38;14.05;;;11.60;;
18196;SDS011;9224;52.422;13.024;2022-10-13T09:29:06;16.23;;;11.95;;
18196;SDS011;9224;52.422;13.024;2022-10-13T09:31:33;14.30;;;12.57;;
18196;SDS011;9224;52.422;13.024;2022-10-13T09:34:02;16.10;;;12.10;;
18196;SDS011;9224;52.422;13.024;2022-10-13T09:36:37;16.58;;;11.30;;
18196;SDS011;9224;52.422;13.024;2022-10-13T09:39:06;16.52;;;11.73;;
18196;SDS011;9224;52.422;13.024;2022-10-13T09:41:35;14.85;;;11.20;;
18196;SDS011;9224;52.422;13.024;2022-10-13T09:44:06;13.68;;;11.57;;
18196;SDS011;9224;52.422;13.024;2022-10-13T09:46:37;15.30;;;11.60;;
18196;SDS011;9224;52.422;13.024;2022-10-13T09:49:04;15.80;;;11.25;;
18196;SDS011;9224;52.422;13.024;2022-10-13T09:51:34;13.23;;;10.75;;
18196;SDS011;9224;52.422;13.024;2022-10-13T09:54:03;12.65;;;10.70;;
18196;SDS011;9224;52.422;13.024;2022-10-13T09:56:34;13.98;;;11.07;;
18196;SDS011;9224;52.422;13.024;2022-10-13T09:59:08;13.60;;;10.75;;
18196;SDS011;9224;52.422;13.024;2022-10-13T10:01:39;14.33;;;11.30;;
18196;SDS011;9224;52.422;13.024;2022-10-13T10:04:09;13.68;;;11.65;;
18196;SDS011;9224;52.422;13.024;2022-10-13T10:06:38;14.73;;;11.38;;
18196;SDS011;9224;52.422;13.024;2022-10-13T10:09:08;12.93;;;11.30;;
18196;SDS011;9224;52.422;13.024;2022-10-13T10:11:58;15.70;;;12.35;;
18196;SDS011;9224;52.422;13.024;2022-10-13T10:14:26;14.65;;;11.65;;
18196;SDS011;9224;52.422;13.024;2022-10-13T10:16:55;16.53;;;12.27;;
18196;SDS011;9224;52.422;13.024;2022-10-13T10:19:25;13.80;;;12.30;;
18196;SDS011;9224;52.422;13.024;2022-10-13T10:21:57;15.32;;;11.57;;
18196;SDS011;9224;52.422;13.024;2022-10-13T10:24:29;23.60;;;14.95;;
18196;SDS011;9224;52.422;13.024;2022-10-13T10:27:06;13.70;;;11.80;;
18196;SDS011;9224;52.422;13.024;2022-10-13T10:29:39;13.48;;;10.68;;
18196;SDS011;9224;52.422;13.024;2022-10-13T10:32:12;15.55;;;10.38;;
18196;SDS011;9224;52.422;13.024;2022-10-13T10:34:48;11.88;;;10.68;;
18196;SDS011;9224;52.422;13.024;2022-10-13T10:37:18;14.90;;;10.38;;
18196;SDS011;9224;52.422;13.024;2022-10-13T10:39:48;14.07;;;9.85;;
18196;SDS011;9224;52.422;13.024;2022-10-13T10:42:23;12.45;;;9.55;;
18196;SDS011;9224;52.422;13.024;2022-10-13T10:45:02;11.98;;;9.23;;
18196;SDS011;9224;52.422;13.024;2022-10-13T10:47:35;13.10;;;8.32;;
18196;SDS011;9224;52.422;13.024;2022-10-13T10:50:04;12.90;;;8.50;;
18196;SDS011;9224;52.422;13.024;2022-10-13T10:52:36;11.90;;;8.30;;
18196;SDS011;9224;52.422;13.024;2022-10-13T10:55:09;13.13;;;8.65;;
18196;SDS011;9224;52.422;13.024;2022-10-13T10:57:46;10.37;;;7.87;;
18196;SDS011;9224;52.422;13.024;2022-10-13T11:00:18;10.10;;;7.53;;
18196;SDS011;9224;52.422;13.024;2022-10-13T11:02:47;8.87;;;7.13;;
18196;SDS011;9224;52.422;13.024;2022-10-13T11:05:15;11.27;;;7.43;;
18196;SDS011;9224;52.422;13.024;2022-10-13T11:07:58;11.43;;;7.93;;
18196;SDS011;9224;52.422;13.024;2022-10-13T11:10:25;10.47;;;7.50;;
18196;SDS011;9224;52.422;13.024;2022-10-13T11:15:52;11.43;;;8.52;;
18196;SDS011;9224;52.422;13.024;2022-10-13T11:27:18;10.93;;;8.00;;
18196;SDS011;9224;52.422;13.024;2022-10-13T11:29:50;10.95;;;8.23;;
18196;SDS011;9224;52.422;13.024;2022-10-13T11:35:21;11.23;;;7.90;;
18196;SDS011;9224;52.422;13.024;2022-10-13T11:37:53;12.45;;;7.50;;
18196;SDS011;9224;52.422;13.024;2022-10-13T11:40:34;11.82;;;7.18;;
18196;SDS011;9224;52.422;13.024;2022-10-13T11:43:15;8.80;;;7.28;;
18196;SDS011;9224;52.422;13.024;2022-10-13T11:45:56;9.87;;;7.63;;
18196;SDS011;9224;52.422;13.024;2022-10-13T11:51:50;10.43;;;7.50;;
18196;SDS011;9224;52.422;13.024;2022-10-13T11:54:26;12.52;;;7.80;;
18196;SDS011;9224;52.422;13.024;2022-10-13T11:56:56;10.45;;;7.30;;
18196;SDS011;9224;52.422;13.024;2022-10-13T11:59:24;9.90;;;7.28;;
18196;SDS011;9224;52.422;13.024;2022-10-13T12:01:52;10.32;;;7.07;;
18196;SDS011;9224;52.422;13.024;2022-10-13T12:04:21;9.80;;;7.07;;
18196;SDS011;9224;52.422;13.024;2022-10-13T12:06:51;11.30;;;7.47;;
18196;SDS011;9224;52.422;13.024;2022-10-13T12:09:19;11.35;;;7.70;;
18196;SDS011;9224;52.422;13.024;2022-10-13T12:11:46;11.13;;;7.80;;
18196;SDS011;9224;52.422;13.024;2022-10-13T12:14:25;11.05;;;7.53;;
18196;SDS011;9224;52.422;13.024;2022-10-13T12:16:55;8.00;;;7.20;;
18196;SDS011;9224;52.422;13.024;2022-10-13T12:19:24;11.35;;;7.30;;
18196;SDS011;9224;52.422;13.024;2022-10-13T12:21:52;8.77;;;7.00;;
18196;SDS011;9224;52.422;13.024;2022-10-13T12:24:20;10.70;;;7.35;;
18196;SDS011;9224;52.422;13.024;2022-10-13T12:26:47;8.57;;;7.63;;
18196;SDS011;9224;52.422;13.024;2022-10-13T12:29:14;10.80;;;7.72;;
18196;SDS011;9224;52.422;13.024;2022-10-13T12:31:41;12.57;;;7.55;;
18196;SDS011;9224;52.422;13.024;2022-10-13T12:34:12;9.27;;;7.50;;
18196;SDS011;9224;52.422;13.024;2022-10-13T12:36:46;10.63;;;7.50;;
18196;SDS011;9224;52.422;13.024;2022-10-13T12:39:17;9.90;;;7.23;;
18196;SDS011;9224;52.422;13.024;2022-10-13T12:41:45;8.67;;;7.17;;
18196;SDS011;9224;52.422;13.024;2022-10-13T12:44:12;11.00;;;7.70;;
18196;SDS011;9224;52.422;13.024;2022-10-13T12:46:40;11.65;;;7.78;;
18196;SDS011;9224;52.422;13.024;2022-10-13T12:49:11;8.50;;;7.50;;
18196;SDS011;9224;52.422;13.024;2022-10-13T12:51:39;12.55;;;7.95;;
18196;SDS011;9224;52.422;13.024;2022-10-13T12:54:07;10.82;;;8.30;;
18196;SDS011;9224;52.422;13.024;2022-10-13T12:56:34;13.13;;;8.25;;
18196;SDS011;9224;52.422;13.024;2022-10-13T12:59:01;13.07;;;8.02;;
18196;SDS011;9224;52.422;13.024;2022-10-13T13:01:29;11.15;;;7.97;;
18196;SDS011;9224;52.422;13.024;2022-10-13T13:03:58;11.73;;;8.07;;
18196;SDS011;9224;52.422;13.024;2022-10-13T13:06:30;10.32;;;7.78;;
18196;SDS011;9224;52.422;13.024;2022-10-13T13:12:05;12.45;;;8.55;;
18196;SDS011;9224;52.422;13.024;2022-10-13T13:14:45;13.23;;;8.33;;
18196;SDS011;9224;52.422;13.024;2022-10-13T13:17:13;11.93;;;8.50;;
18196;SDS011;9224;52.422;13.024;2022-10-13T13:19:47;11.10;;;8.35;;
18196;SDS011;9224;52.422;13.024;2022-10-13T13:22:14;12.30;;;8.57;;
18196;SDS011;9224;52.422;13.024;2022-10-13T13:24:42;12.18;;;7.95;;
18196;SDS011;9224;52.422;13.024;2022-10-13T13:27:13;9.13;;;7.77;;
18196;SDS011;9224;52.422;13.024;2022-10-13T13:29:41;10.90;;;7.70;;
18196;SDS011;9224;52.422;13.024;2022-10-13T13:32:08;9.03;;;7.50;;
18196;SDS011;9224;52.422;13.024;2022-10-13T13:34:36;11.00;;;7.97;;
18196;SDS011;9224;52.422;13.024;2022-10-13T13:37:03;10.20;;;7.45;;
18196;SDS011;9224;52.422;13.024;2022-10-13T13:39:29;11.02;;;7.75;;
18196;SDS011;9224;52.422;13.024;2022-10-13T13:41:57;10.40;;;7.18;;
18196;SDS011;9224;52.422;13.024;2022-10-13T13:44:24;9.40;;;7.20;;
18196;SDS011;9224;52.422;13.024;2022-10-13T13:46:50;9.65;;;7.38;;
18196;SDS011;9224;52.422;13.024;2022-10-13T13:49:16;11.38;;;7.28;;
18196;SDS011;9224;52.422;13.024;2022-10-13T13:51:43;9.85;;;7.32;;
18196;SDS011;9224;52.422;13.024;2022-10-13T13:54:09;11.00;;;6.80;;
18196;SDS011;9224;52.422;13.024;2022-10-13T13:56:36;11.25;;;6.70;;
18196;SDS011;9224;52.422;13.024;2022-10-13T13:59:04;8.07;;;6.87;;
18196;SDS011;9224;52.422;13.024;2022-10-13T14:01:31;10.43;;;7.22;;
18196;SDS011;9224;52.422;13.024;2022-10-13T14:03:57;9.33;;;6.57;;
18196;SDS011;9224;52.422;13.024;2022-10-13T14:06:24;8.68;;;6.20;;
18196;SDS011;9224;52.422;13.024;2022-10-13T14:08:51;8.77;;;6.53;;
18196;SDS011;9224;52.422;13.024;2022-10-13T14:11:18;9.77;;;6.35;;
18196;SDS011;9224;52.422;13.024;2022-10-13T14:13:44;9.98;;;6.72;;
18196;SDS011;9224;52.422;13.024;2022-10-13T14:16:14;8.27;;;6.40;;
18196;SDS011;9224;52.422;13.024;2022-10-13T14:18:41;8.48;;;6.30;;
18196;SDS011;9224;52.422;13.024;2022-10-13T14:21:08;7.85;;;6.35;;
18196;SDS011;9224;52.422;13.024;2022-10-13T14:23:34;8.93;;;6.43;;
18196;SDS011;9224;52.422;13.024;2022-10-13T14:26:03;9.35;;;6.35;;
18196;SDS011;9224;52.422;13.024;2022-10-13T14:28:31;9.07;;;6.68;;
18196;SDS011;9224;52.422;13.024;2022-10-13T14:31:03;8.23;;;6.22;;
18196;SDS011;9224;52.422;13.024;2022-10-13T14:33:31;8.45;;;6.40;;
18196;SDS011;9224;52.422;13.024;2022-10-13T14:35:58;8.33;;;6.80;;
18196;SDS011;9224;52.422;13.024;2022-10-13T14:38:25;8.75;;;6.53;;
18196;SDS011;9224;52.422;13.024;2022-10-13T14:40:51;9.70;;;6.03;;
18196;SDS011;9224;52.422;13.024;2022-10-13T14:43:18;10.35;;;6.20;;
18196;SDS011;9224;52.422;13.024;2022-10-13T14:45:44;7.03;;;5.60;;
18196;SDS011;9224;52.422;13.024;2022-10-13T14:48:10;7.28;;;5.80;;
18196;SDS011;9224;52.422;13.024;2022-10-13T14:50:40;8.50;;;6.55;;
18196;SDS011;9224;52.422;13.024;2022-10-13T14:53:06;7.15;;;5.75;;
18196;SDS011;9224;52.422;13.024;2022-10-13T14:55:39;7.80;;;6.13;;
18196;SDS011;9224;52.422;13.024;2022-10-13T14:58:06;6.57;;;5.57;;
18196;SDS011;9224;52.422;13.024;2022-10-13T15:00:32;7.82;;;5.75;;
18196;SDS011;9224;52.422;13.024;2022-10-13T15:02:58;8.70;;;5.95;;